Aeroporto :
LOGIN :

Iscrizione | Disclaimer

   EN    FR    IT 

 










Sommario :    VFR   VFR Marginale   IFR   IFR Intensivo   IFR Molto Intensivo
Visibilità : 
Base nubi : 
>= 8 km
>= 3000ft
5 / 8 km
1000 / 3000 ft
1500m / 5 km
500 / 1000 ft
800 / 1500m
200 / 500 ft
< 800m
< 200 ft
Simboli :   Temporali  Nebbia  Neve Forte  Precipitazioni Forti  Vento > 20 kt
SIGMETs :   Varie  Temporali  Ghiacco  Turbolenza  Onda orograficha  Ceneri Vulcaniche






- Altitudine del aeroporto : 157 ft
- Codice IATA : SXF


EDDB - Berlin Schönefeld

ULTIMO METAR :
  • 120520Z 18008KT CAVOK 03/00 Q1006 NOSIG

METARs OBSOLETI :
  • 120450Z 17008KT CAVOK 02/00 Q1006 NOSIG
  • 120420Z 17007KT CAVOK 02/00 Q1006 NOSIG
  • 120350Z 17004KT 9999 FEW045 02/00 Q1005 NOSIG
  • 120320Z 17007KT CAVOK 02/M00 Q1005 NOSIG
  • 120250Z 17005KT CAVOK 02/M00 Q1005 NOSIG

TAF TAF EDDB
Valido dal 12 a 06 ore il 13 a 06 ore UTC


120500Z 1206/1306 18008KT 9999 SCT030



MetMap, La meteo Aeronautica in un colpo d'occhio ! - Copyright ORBIFLY Dicembre 2007 - Disclaimer

ORBIFLY MET'MAP TEAM :

Programmazione e sviluppo : Alexandra Zaïnal
Concezione e sviluppo : Baudouin d'Aumeries
Co-Programmazione e sviluppo : Marc-Olivier Méhu
Supporto tecnico e logistico : Manuel Goepfert
Aiuto per la traduzione : Arnaldo La Scala

Contatto : metmap@orbifly.com




FONTI E CREDITI :

   NOAA